Time;durP1;ratioP1;P1;durP2;ratioP2;P2;SDS_P1;SDS_P2;PMS_P1;PMS_P2;Temp;Humidity;BMP_temperature;BMP_pressure;BME280_temperature;BME280_humidity;BME280_pressure;Samples;Min_cycle;Max_cycle;Signal;HPM_P1;HPM_P2
2022/01/13 00:00:12;;;;;;;21.57;11.73;;;;;;;0.53;100.00;102866.09;5000469;28;20220;-74
2022/01/13 00:02:38;;;;;;;20.73;11.20;;;;;;;0.51;100.00;102862.56;4986583;28;20254;-76
2022/01/13 00:05:07;;;;;;;22.20;10.53;;;;;;;0.51;100.00;102853.97;5003146;28;20680;-74
2022/01/13 00:07:33;;;;;;;22.20;11.50;;;;;;;0.52;100.00;102851.47;5001168;28;20543;-76
2022/01/13 00:10:00;;;;;;;25.13;12.20;;;;;;;0.57;100.00;102849.16;5000695;28;20204;-76
2022/01/13 00:12:32;;;;;;;23.67;11.40;;;;;;;0.57;100.00;102849.16;5003197;28;20212;-76
2022/01/13 00:15:09;;;;;;;25.73;12.90;;;;;;;0.60;100.00;102856.09;5003082;28;20270;-76
2022/01/13 00:17:57;;;;;;;23.63;11.43;;;;;;;0.60;100.00;102850.97;5001256;28;20236;-76
2022/01/13 00:20:57;;;;;;;26.17;12.23;;;;;;;0.58;100.00;102856.03;4999147;28;20292;-75
2022/01/13 00:23:43;;;;;;;27.73;12.63;;;;;;;0.59;100.00;102857.81;5004415;28;20281;-76
2022/01/13 00:26:18;;;;;;;25.67;12.57;;;;;;;0.58;100.00;102850.88;5000812;28;20280;-76
2022/01/13 00:28:47;;;;;;;27.10;13.57;;;;;;;0.59;100.00;102852.66;5004605;28;20196;-76
2022/01/13 00:31:16;;;;;;;24.60;12.37;;;;;;;0.60;100.00;102851.88;4999186;28;20208;-76
2022/01/13 00:33:45;;;;;;;28.03;13.10;;;;;;;0.62;100.00;102836.56;4994591;28;20269;-76
2022/01/13 00:36:14;;;;;;;26.40;12.70;;;;;;;0.63;100.00;102848.56;5002385;28;20220;-76
2022/01/13 00:38:40;;;;;;;27.83;13.60;;;;;;;0.64;100.00;102845.22;4999675;28;20200;-76
2022/01/13 00:41:07;;;;;;;27.77;13.53;;;;;;;0.64;100.00;102846.09;5004194;28;20674;-75
2022/01/13 00:43:37;;;;;;;28.80;13.63;;;;;;;0.63;100.00;102851.13;4999630;28;20828;-75
2022/01/13 00:46:03;;;;;;;27.90;14.70;;;;;;;0.63;100.00;102856.28;5004686;28;20687;-75
2022/01/13 00:48:29;;;;;;;28.87;14.33;;;;;;;0.64;100.00;102845.22;5002680;28;20212;-76
2022/01/13 00:50:56;;;;;;;32.57;14.10;;;;;;;0.64;100.00;102842.66;5000424;28;20561;-75
2022/01/13 00:53:23;;;;;;;35.37;15.33;;;;;;;0.67;100.00;102846.25;5000573;28;20216;-75
2022/01/13 00:55:58;;;;;;;27.67;13.57;;;;;;;0.66;100.00;102839.34;5002826;28;20212;-76
2022/01/13 00:58:25;;;;;;;31.13;14.70;;;;;;;0.67;100.00;102841.09;4998746;28;20784;-76
2022/01/13 01:00:52;;;;;;;28.70;14.03;;;;;;;0.68;100.00;102837.72;4999345;28;20599;-75
2022/01/13 01:03:18;;;;;;;30.40;13.90;;;;;;;0.71;100.00;102834.44;5002347;28;20230;-76
2022/01/13 01:05:45;;;;;;;28.63;14.30;;;;;;;0.71;100.00;102824.16;4997774;28;20212;-76
2022/01/13 01:08:12;;;;;;;27.50;13.60;;;;;;;0.71;100.00;102819.91;5001258;28;20613;-76
2022/01/13 01:10:41;;;;;;;29.57;15.30;;;;;;;0.73;100.00;102819.97;4999057;28;20197;-76
2022/01/13 01:13:13;;;;;;;29.70;14.23;;;;;;;0.73;100.00;102817.41;5000644;28;20226;-76
2022/01/13 01:15:42;;;;;;;32.37;14.93;;;;;;;0.75;100.00;102823.50;5003280;28;20221;-76
2022/01/13 01:18:19;;;;;;;31.77;14.63;;;;;;;0.76;100.00;102820.13;5009279;28;20200;-76
2022/01/13 01:20:51;;;;;;;29.60;14.53;;;;;;;0.78;100.00;102817.66;5003956;28;20231;-75
2022/01/13 01:23:23;;;;;;;27.13;13.90;;;;;;;0.79;100.00;102819.41;5008302;28;20220;-76
2022/01/13 01:26:02;;;;;;;29.03;14.33;;;;;;;0.81;100.00;102818.69;5003358;28;20201;-76
2022/01/13 01:28:39;;;;;;;29.47;14.13;;;;;;;0.84;100.00;102821.38;5007759;28;20208;-76
2022/01/13 01:31:05;;;;;;;31.70;14.77;;;;;;;0.85;100.00;102817.16;5006475;28;20244;-76
2022/01/13 01:33:35;;;;;;;26.97;13.37;;;;;;;0.87;100.00;102803.56;5008792;28;20234;-74
2022/01/13 01:36:04;;;;;;;26.23;13.53;;;;;;;0.88;100.00;102795.06;5000112;28;20226;-75
2022/01/13 01:38:31;;;;;;;27.10;13.90;;;;;;;0.88;100.00;102795.06;5006272;28;20708;-76
2022/01/13 01:40:59;;;;;;;28.30;14.60;;;;;;;0.90;100.00;102790.88;5003934;28;20266;-76
2022/01/13 01:43:26;;;;;;;28.00;14.23;;;;;;;0.91;100.00;102791.75;5005352;28;20213;-76
2022/01/13 01:45:54;;;;;;;29.83;13.60;;;;;;;0.94;100.00;102797.03;5005504;28;20270;-76
2022/01/13 01:48:21;;;;;;;31.37;14.33;;;;;;;0.94;100.00;102791.91;5003959;28;20201;-75
2022/01/13 01:50:55;;;;;;;32.97;14.50;;;;;;;0.97;100.00;102786.00;5004649;28;20211;-76
2022/01/13 01:53:22;;;;;;;27.10;14.20;;;;;;;0.97;100.00;102788.56;5006147;28;20230;-76
2022/01/13 01:55:48;;;;;;;28.63;14.73;;;;;;;0.96;100.00;102792.84;5007543;28;20224;-76
2022/01/13 01:58:16;;;;;;;31.33;14.70;;;;;;;0.99;100.00;102792.13;5001782;28;20220;-76
2022/01/13 02:00:43;;;;;;;30.07;14.60;;;;;;;1.02;100.00;102800.88;5006509;28;20220;-76
2022/01/13 02:03:10;;;;;;;29.33;14.10;;;;;;;1.02;100.00;102788.00;5004195;28;20237;-74
2022/01/13 02:05:37;;;;;;;27.37;13.87;;;;;;;1.03;100.00;102786.31;5006205;28;20204;-74
2022/01/13 02:08:05;;;;;;;25.43;13.50;;;;;;;1.06;100.00;102781.34;5005311;28;20205;-75
2022/01/13 02:10:31;;;;;;;28.77;14.27;;;;;;;1.06;100.00;102771.94;5005700;28;20292;-75
2022/01/13 02:13:04;;;;;;;27.73;14.47;;;;;;;1.09;100.00;102772.09;5004839;28;20227;-76
2022/01/13 02:15:34;;;;;;;28.40;14.87;;;;;;;1.10;100.00;102778.09;5004127;28;20668;-74
2022/01/13 02:18:04;;;;;;;27.33;14.83;;;;;;;1.11;100.00;102780.75;5006856;28;20651;-76
2022/01/13 02:20:43;;;;;;;32.33;14.33;;;;;;;1.15;100.00;102778.31;5006300;28;20216;-76
2022/01/13 02:23:09;;;;;;;28.20;14.13;;;;;;;1.16;100.00;102772.34;5007616;28;20778;-76
2022/01/13 02:25:36;;;;;;;26.00;14.27;;;;;;;1.16;100.00;102762.94;5004448;28;20205;-76
2022/01/13 02:28:02;;;;;;;30.97;14.87;;;;;;;1.17;100.00;102758.72;5006803;28;20197;-76
2022/01/13 02:30:29;;;;;;;27.73;14.43;;;;;;;1.18;100.00;102763.03;5003723;28;20570;-76
2022/01/13 02:32:55;;;;;;;27.67;14.77;;;;;;;1.20;100.00;102766.56;5000607;28;20221;-76
2022/01/13 02:35:22;;;;;;;28.57;14.63;;;;;;;1.22;100.00;102758.09;5002746;28;20788;-76
2022/01/13 02:37:49;;;;;;;31.73;13.83;;;;;;;1.21;100.00;102765.75;5004701;28;20640;-76
2022/01/13 02:40:16;;;;;;;28.50;14.10;;;;;;;1.22;100.00;102765.81;5004150;28;20210;-75
2022/01/13 02:42:42;;;;;;;28.47;14.30;;;;;;;1.24;100.00;102774.47;4987866;28;20598;-76
2022/01/13 02:45:19;;;;;;;31.10;14.30;;;;;;;1.27;100.00;102778.88;5003378;28;20211;-76
2022/01/13 02:48:12;;;;;;;28.63;13.90;;;;;;;1.26;100.00;102777.13;4998930;28;20211;-76
2022/01/13 02:50:40;;;;;;;25.17;14.27;;;;;;;1.29;100.00;102766.97;5003722;28;20200;-75
2022/01/13 02:53:08;;;;;;;27.90;13.57;;;;;;;1.29;100.00;102757.56;5004360;28;20224;-74
2022/01/13 02:55:35;;;;;;;29.57;13.90;;;;;;;1.29;100.00;102752.44;5006230;28;20197;-76
2022/01/13 02:58:01;;;;;;;26.63;13.63;;;;;;;1.30;100.00;102751.63;5001353;28;20747;-76
2022/01/13 03:00:28;;;;;;;24.87;12.77;;;;;;;1.30;100.00;102750.72;5002961;28;20218;-77
2022/01/13 03:02:55;;;;;;;29.73;13.67;;;;;;;1.30;100.00;102736.22;5003718;28;20451;-76
2022/01/13 03:05:22;;;;;;;28.77;14.43;;;;;;;1.30;100.00;102733.66;5006630;28;20271;-76
2022/01/13 03:07:48;;;;;;;26.50;13.60;;;;;;;1.30;100.00;102728.50;5003946;28;20896;-76
2022/01/13 03:10:16;;;;;;;26.03;13.13;;;;;;;1.31;100.00;102730.25;5004500;28;20299;-76
2022/01/13 03:12:45;;;;;;;28.10;14.03;;;;;;;1.32;100.00;102726.00;5002142;28;20235;-76
2022/01/13 03:15:11;;;;;;;26.83;13.00;;;;;;;1.31;100.00;102731.94;5006298;28;20210;-75
2022/01/13 03:17:37;;;;;;;32.00;13.57;;;;;;;1.32;100.00;102726.88;5004642;28;20227;-76
2022/01/13 03:20:05;;;;;;;26.43;11.97;;;;;;;1.33;100.00;102732.88;5003160;28;20192;-76
2022/01/13 03:22:31;;;;;;;25.80;13.07;;;;;;;1.35;100.00;102722.69;5005137;28;20247;-76
2022/01/13 03:24:57;;;;;;;24.43;12.50;;;;;;;1.32;100.00;102718.31;5004732;28;20216;-76
2022/01/13 03:27:33;;;;;;;28.23;12.37;;;;;;;1.31;100.00;102724.22;5005988;28;20201;-75
2022/01/13 03:30:01;;;;;;;24.93;12.50;;;;;;;1.33;100.00;102723.47;5004266;28;20627;-74
2022/01/13 03:32:27;;;;;;;26.23;12.23;;;;;;;1.32;100.00;102728.59;5006513;28;20566;-76
2022/01/13 03:34:53;;;;;;;25.87;12.37;;;;;;;1.32;100.00;102719.16;5000034;28;20603;-75
2022/01/13 03:37:20;;;;;;;25.63;12.13;;;;;;;1.28;100.00;102714.69;4991193;28;20610;-75
2022/01/13 03:39:46;;;;;;;22.13;11.33;;;;;;;1.31;100.00;102719.09;5002499;28;20211;-75
2022/01/13 03:42:13;;;;;;;22.57;11.43;;;;;;;1.29;100.00;102721.59;5005510;28;20204;-75
2022/01/13 03:44:40;;;;;;;28.47;11.73;;;;;;;1.29;100.00;102713.00;5006092;28;20215;-75
2022/01/13 03:47:09;;;;;;;25.97;11.60;;;;;;;1.27;100.00;102707.78;5001594;28;20189;-75
2022/01/13 03:49:36;;;;;;;25.30;11.63;;;;;;;1.28;100.00;102709.53;5003716;28;20208;-76
2022/01/13 03:52:53;;;;;;;28.13;10.67;;;;;;;1.23;100.00;102703.34;5000981;28;20211;-75
2022/01/13 03:55:57;;;;;;;17.20;9.97;;;;;;;1.24;100.00;102705.06;5002466;28;20204;-76
2022/01/13 03:58:56;;;;;;;20.00;10.70;;;;;;;1.23;100.00;102710.16;5003870;28;20204;-75
2022/01/13 04:01:52;;;;;;;22.17;11.03;;;;;;;1.20;100.00;102713.47;5001369;28;20219;-75
2022/01/13 04:04:19;;;;;;;22.77;10.40;;;;;;;1.18;100.00;102716.75;5003952;28;20216;-74
2022/01/13 04:06:46;;;;;;;20.13;11.13;;;;;;;1.16;100.00;102714.13;5002345;28;20255;-76
2022/01/13 04:09:30;;;;;;;20.87;11.00;;;;;;;1.14;100.00;102715.75;5004873;28;20288;-76
2022/01/13 04:11:57;;;;;;;19.90;11.37;;;;;;;1.13;100.00;102696.00;5001215;28;20211;-74
2022/01/13 04:14:30;;;;;;;22.17;11.33;;;;;;;1.11;100.00;102700.22;5005375;28;20225;-75
2022/01/13 04:16:58;;;;;;;20.87;10.97;;;;;;;1.09;100.00;102700.13;4985963;28;20319;-76
2022/01/13 04:19:24;;;;;;;18.83;10.73;;;;;;;1.08;100.00;102697.50;5005253;28;20211;-76
2022/01/13 04:21:51;;;;;;;21.93;11.40;;;;;;;1.05;100.00;102694.78;5001747;28;20209;-76
2022/01/13 04:24:17;;;;;;;25.00;11.60;;;;;;;1.02;100.00;102695.53;5003848;28;20857;-75
2022/01/13 04:26:44;;;;;;;27.17;12.43;;;;;;;1.02;100.00;102692.06;5003188;28;20328;-74
2022/01/13 04:29:27;;;;;;;26.03;11.63;;;;;;;1.01;100.00;102693.75;5002544;28;20200;-74
2022/01/13 04:31:54;;;;;;;25.80;11.90;;;;;;;0.99;100.00;102690.25;5006418;28;20682;-75
2022/01/13 04:34:22;;;;;;;21.87;11.17;;;;;;;0.98;100.00;102695.31;5003760;28;20223;-76
2022/01/13 04:36:48;;;;;;;18.53;10.60;;;;;;;0.96;100.00;102700.38;5004899;28;20232;-75
2022/01/13 04:39:16;;;;;;;23.83;11.77;;;;;;;0.94;100.00;102708.00;5000247;28;20734;-76
2022/01/13 04:41:45;;;;;;;23.73;12.43;;;;;;;0.94;100.00;102718.28;5005368;28;20287;-76
2022/01/13 04:44:14;;;;;;;25.63;12.10;;;;;;;0.94;100.00;102714.84;5000676;28;20240;-75
2022/01/13 04:46:41;;;;;;;24.13;11.43;;;;;;;0.94;100.00;102725.09;5000632;28;20200;-74
2022/01/13 04:49:08;;;;;;;21.47;12.00;;;;;;;0.92;100.00;102714.75;5000004;28;20215;-76
2022/01/13 04:51:36;;;;;;;22.23;12.40;;;;;;;0.92;100.00;102717.31;5001323;28;20208;-74
2022/01/13 04:54:03;;;;;;;20.63;11.83;;;;;;;0.89;100.00;102711.16;5003838;28;20590;-75
2022/01/13 04:56:37;;;;;;;23.67;11.43;;;;;;;0.90;100.00;102716.38;5001141;28;20217;-75
2022/01/13 04:59:03;;;;;;;22.23;11.90;;;;;;;0.87;100.00;102715.34;5002477;28;20246;-75
2022/01/13 05:01:30;;;;;;;24.40;11.97;;;;;;;0.86;100.00;102706.78;5003447;28;20219;-74
2022/01/13 05:03:57;;;;;;;24.43;12.47;;;;;;;0.86;100.00;102708.44;5003952;28;21529;-76
2022/01/13 05:06:24;;;;;;;21.47;11.40;;;;;;;0.86;100.00;102709.34;5003814;28;20234;-76
2022/01/13 05:08:52;;;;;;;19.80;11.60;;;;;;;0.85;100.00;102707.56;5002580;28;20204;-75
2022/01/13 05:11:20;;;;;;;25.70;12.13;;;;;;;0.86;100.00;102708.44;4999176;28;20221;-75
2022/01/13 05:13:46;;;;;;;21.80;12.10;;;;;;;0.85;100.00;102715.28;5002114;28;20220;-75
2022/01/13 05:16:20;;;;;;;25.20;12.07;;;;;;;0.85;100.00;102710.13;5000861;28;20674;-76
2022/01/13 05:18:53;;;;;;;21.27;11.83;;;;;;;0.85;100.00;102702.44;4986506;28;20308;-75
2022/01/13 05:21:23;;;;;;;23.17;12.27;;;;;;;0.87;100.00;102707.66;4998256;28;20570;-76
2022/01/13 05:23:52;;;;;;;24.43;11.77;;;;;;;0.85;100.00;102696.44;5000458;28;20244;-75
2022/01/13 05:26:20;;;;;;;22.73;12.20;;;;;;;0.85;100.00;102699.88;5001430;28;20219;-75
2022/01/13 05:28:47;;;;;;;23.73;12.60;;;;;;;0.85;100.00;102705.00;5003312;28;20903;-75
2022/01/13 05:31:13;;;;;;;24.50;12.03;;;;;;;0.85;100.00;102699.88;5002577;28;20189;-75
2022/01/13 05:33:39;;;;;;;25.50;12.63;;;;;;;0.87;100.00;102698.25;5002352;28;20215;-75
2022/01/13 05:36:06;;;;;;;27.07;12.40;;;;;;;0.87;100.00;102700.81;5000009;28;20674;-75
2022/01/13 05:38:33;;;;;;;26.07;13.27;;;;;;;0.86;100.00;102691.38;5000409;28;20228;-76
2022/01/13 05:40:59;;;;;;;24.83;12.80;;;;;;;0.87;100.00;102689.66;4999361;28;20208;-75
2022/01/13 05:43:27;;;;;;;22.07;11.90;;;;;;;0.88;100.00;102692.31;4999798;28;20232;-74
2022/01/13 05:45:53;;;;;;;24.23;12.63;;;;;;;0.89;100.00;102686.34;5002727;28;20200;-75
2022/01/13 05:48:20;;;;;;;27.37;11.80;;;;;;;0.91;100.00;102691.56;5001400;28;21456;-75
2022/01/13 05:50:46;;;;;;;23.73;12.23;;;;;;;0.89;100.00;102686.34;4999858;28;20437;-76
2022/01/13 05:53:13;;;;;;;23.57;11.87;;;;;;;0.91;100.00;102681.28;5001848;28;20225;-76
2022/01/13 05:55:39;;;;;;;24.53;12.57;;;;;;;0.90;100.00;102675.28;5001116;28;20205;-75
2022/01/13 05:58:06;;;;;;;25.83;12.30;;;;;;;0.91;100.00;102689.88;5001595;28;20344;-75
2022/01/13 06:00:34;;;;;;;23.63;11.83;;;;;;;0.92;100.00;102690.75;4998613;28;20735;-74
2022/01/13 06:03:00;;;;;;;21.90;11.90;;;;;;;0.92;100.00;102693.34;5005148;28;20231;-75
2022/01/13 06:05:27;;;;;;;25.23;11.90;;;;;;;0.91;100.00;102677.03;4984557;28;20217;-75
2022/01/13 06:07:54;;;;;;;25.83;12.77;;;;;;;0.91;100.00;102679.59;5006517;28;20472;-75
2022/01/13 06:10:21;;;;;;;26.63;11.50;;;;;;;0.90;100.00;102676.97;5003803;28;20612;-76
2022/01/13 06:12:49;;;;;;;24.13;11.43;;;;;;;0.90;100.00;102667.56;5006202;28;20220;-75
2022/01/13 06:15:18;;;;;;;21.47;11.20;;;;;;;0.90;100.00;102669.28;5004182;28;20204;-75
2022/01/13 06:17:47;;;;;;;26.60;12.23;;;;;;;0.90;100.00;102672.72;4997992;28;20252;-75
2022/01/13 06:20:14;;;;;;;25.37;12.17;;;;;;;0.90;100.00;102675.28;5002642;28;20573;-75
2022/01/13 06:22:43;;;;;;;27.67;12.73;;;;;;;0.90;100.00;102672.72;5004653;28;20219;-75
2022/01/13 06:25:10;;;;;;;24.50;11.20;;;;;;;0.91;100.00;102683.84;5004116;28;20205;-76
2022/01/13 06:27:37;;;;;;;27.70;12.77;;;;;;;0.90;100.00;102687.25;5004353;28;20196;-74
2022/01/13 06:30:05;;;;;;;23.80;12.27;;;;;;;0.91;100.00;102683.84;4993626;28;20208;-75
2022/01/13 06:32:32;;;;;;;26.33;11.83;;;;;;;0.91;100.00;102686.44;5001936;28;20229;-75
2022/01/13 06:35:00;;;;;;;23.20;12.23;;;;;;;0.90;100.00;102687.25;5005474;28;20277;-75
2022/01/13 06:37:26;;;;;;;24.03;12.23;;;;;;;0.91;100.00;102687.28;5003859;28;21574;-76
2022/01/13 06:39:52;;;;;;;23.80;11.83;;;;;;;0.93;100.00;102684.81;4997870;28;20204;-74
2022/01/13 06:42:19;;;;;;;26.77;12.23;;;;;;;0.91;100.00;102694.13;5002957;28;20201;-75
2022/01/13 06:44:45;;;;;;;25.17;12.43;;;;;;;0.93;100.00;102700.22;5003324;28;20223;-75
2022/01/13 06:47:12;;;;;;;22.47;12.00;;;;;;;0.93;100.00;102703.69;5003409;28;20917;-75
2022/01/13 06:49:39;;;;;;;27.53;12.83;;;;;;;0.94;100.00;102708.00;5002959;28;20205;-76
2022/01/13 06:52:08;;;;;;;31.03;14.07;;;;;;;0.94;100.00;102714.84;5002338;28;20561;-75
2022/01/13 06:54:35;;;;;;;26.77;12.83;;;;;;;0.95;100.00;102719.19;5003092;28;20216;-75
2022/01/13 06:57:01;;;;;;;25.00;12.43;;;;;;;0.97;100.00;102722.69;4987078;28;20224;-75
2022/01/13 06:59:27;;;;;;;27.33;12.63;;;;;;;0.97;100.00;102727.81;5001516;28;20205;-74
2022/01/13 07:01:56;;;;;;;29.03;12.40;;;;;;;0.98;100.00;102729.56;5005059;28;20311;-75
2022/01/13 07:04:22;;;;;;;25.53;12.40;;;;;;;0.99;100.00;102738.19;5003511;28;20282;-74
2022/01/13 07:06:49;;;;;;;31.50;13.80;;;;;;;0.99;100.00;102733.03;5005735;28;20359;-75
2022/01/13 07:09:18;;;;;;;28.00;12.40;;;;;;;0.99;100.00;102741.63;5002387;28;20205;-75
2022/01/13 07:11:46;;;;;;;30.47;13.40;;;;;;;1.00;100.00;102745.94;5009304;28;20208;-76
2022/01/13 07:14:13;;;;;;;31.30;13.40;;;;;;;1.03;100.00;102751.22;5004047;28;21041;-75
2022/01/13 07:16:41;;;;;;;28.93;13.60;;;;;;;1.02;100.00;102748.56;5005374;28;20215;-75
2022/01/13 07:19:09;;;;;;;26.30;12.77;;;;;;;1.03;100.00;102752.91;5003040;28;20698;-75
2022/01/13 07:21:36;;;;;;;25.70;12.87;;;;;;;1.05;100.00;102743.59;5003750;28;20764;-76
2022/01/13 07:24:02;;;;;;;27.27;13.20;;;;;;;1.05;100.00;102744.47;5002976;28;20231;-75
2022/01/13 07:26:30;;;;;;;27.43;13.00;;;;;;;1.05;100.00;102734.19;5002425;28;20211;-75
2022/01/13 07:28:56;;;;;;;28.07;13.23;;;;;;;1.08;100.00;102723.19;4983650;28;20213;-75
2022/01/13 07:31:23;;;;;;;29.77;13.70;;;;;;;1.07;100.00;102701.75;5003417;28;20230;-75
2022/01/13 07:33:49;;;;;;;29.20;14.03;;;;;;;1.08;100.00;102706.06;5004903;28;20221;-75
2022/01/13 07:36:16;;;;;;;26.17;13.03;;;;;;;1.09;100.00;102712.97;5004720;28;20201;-74
2022/01/13 07:38:42;;;;;;;27.27;13.40;;;;;;;1.10;100.00;102713.84;5003484;28;21019;-75
2022/01/13 07:41:08;;;;;;;32.77;14.23;;;;;;;1.13;100.00;102719.13;5002450;28;20220;-74
2022/01/13 07:43:36;;;;;;;32.00;14.17;;;;;;;1.14;100.00;102718.31;5004421;28;20239;-75
2022/01/13 07:46:03;;;;;;;29.20;13.97;;;;;;;1.17;100.00;102712.44;5003895;28;20569;-75
2022/01/13 07:48:29;;;;;;;30.17;14.10;;;;;;;1.18;100.00;102707.38;5005764;28;20200;-75
2022/01/13 07:50:55;;;;;;;36.07;15.73;;;;;;;1.19;100.00;102710.81;5004848;28;20212;-75
2022/01/13 07:53:22;;;;;;;33.83;15.23;;;;;;;1.21;100.00;102711.78;5003184;28;20217;-75
2022/01/13 07:55:49;;;;;;;30.17;12.97;;;;;;;1.23;100.00;102720.44;4987455;28;20299;-75
2022/01/13 07:58:15;;;;;;;29.43;14.00;;;;;;;1.23;100.00;102730.72;5004602;28;20216;-75
2022/01/13 08:00:44;;;;;;;31.83;13.33;;;;;;;1.24;100.00;102723.06;5005195;28;20264;-75
2022/01/13 08:03:10;;;;;;;28.87;12.27;;;;;;;1.27;100.00;102720.66;5002279;28;20685;-76
2022/01/13 08:05:36;;;;;;;32.53;14.03;;;;;;;1.31;100.00;102719.09;5005611;28;20204;-75
2022/01/13 08:08:03;;;;;;;35.73;14.60;;;;;;;1.31;100.00;102724.22;5002785;28;20195;-76
2022/01/13 08:10:30;;;;;;;36.57;14.03;;;;;;;1.33;100.00;102717.47;5004661;28;20200;-75
2022/01/13 08:12:56;;;;;;;28.63;13.77;;;;;;;1.36;100.00;102717.63;5000639;28;20239;-75
2022/01/13 08:15:23;;;;;;;30.83;12.67;;;;;;;1.37;100.00;102721.06;5005046;28;20200;-75
2022/01/13 08:20:35;;;;;;;32.33;14.60;;;;;;;1.38;100.00;102716.00;5001200;28;20351;-75
2022/01/13 08:23:02;;;;;;;30.67;14.57;;;;;;;1.39;100.00;102712.63;4997227;28;20556;-76
2022/01/13 08:25:30;;;;;;;34.23;14.23;;;;;;;1.40;100.00;102711.78;5001878;28;20692;-76
2022/01/13 08:27:57;;;;;;;31.30;13.07;;;;;;;1.44;100.00;102705.09;5003141;28;20254;-75
2022/01/13 08:30:24;;;;;;;24.70;13.37;;;;;;;1.44;100.00;102717.94;5004019;28;20902;-76
2022/01/13 08:32:52;;;;;;;26.90;13.00;;;;;;;1.46;100.00;102721.47;5004689;28;20224;-74
2022/01/13 08:35:19;;;;;;;26.83;12.13;;;;;;;1.48;100.00;102725.88;5000827;28;20197;-75
2022/01/13 08:37:45;;;;;;;25.63;12.43;;;;;;;1.48;100.00;102720.75;5003232;28;20217;-75
2022/01/13 08:40:15;;;;;;;26.97;12.37;;;;;;;1.48;100.00;102718.16;5003535;28;20670;-76
2022/01/13 08:42:42;;;;;;;30.70;13.43;;;;;;;1.48;100.00;102705.31;5003957;28;20236;-75
2022/01/13 08:45:11;;;;;;;31.73;13.50;;;;;;;1.50;100.00;102703.69;5003406;28;20598;-76
2022/01/13 08:47:37;;;;;;;32.37;12.90;;;;;;;1.51;100.00;102699.41;5003971;28;20211;-75
2022/01/13 08:50:07;;;;;;;33.27;14.20;;;;;;;1.53;100.00;102697.81;4998608;28;20661;-75
2022/01/13 08:52:37;;;;;;;30.90;13.53;;;;;;;1.55;100.00;102709.03;5001263;28;20708;-74
2022/01/13 08:55:05;;;;;;;29.60;13.60;;;;;;;1.58;100.00;102705.72;5001297;28;20280;-74
2022/01/13 08:57:32;;;;;;;30.37;13.00;;;;;;;1.57;100.00;102702.28;5000683;28;20207;-75
2022/01/13 08:59:58;;;;;;;30.40;13.50;;;;;;;1.62;100.00;102715.31;5002946;28;20735;-75
2022/01/13 09:02:24;;;;;;;26.30;12.67;;;;;;;1.65;100.00;102718.03;5001557;28;20221;-74
2022/01/13 09:04:51;;;;;;;32.23;12.37;;;;;;;1.65;100.00;102712.88;5003154;28;20535;-75
2022/01/13 09:07:19;;;;;;;26.90;12.53;;;;;;;1.67;100.00;102716.38;5000884;28;20204;-75
2022/01/13 09:09:45;;;;;;;26.70;12.27;;;;;;;1.67;100.00;102714.72;5002951;28;20200;-75
2022/01/13 09:12:11;;;;;;;26.53;12.17;;;;;;;1.70;100.00;102727.69;5004600;28;20201;-75
2022/01/13 09:14:39;;;;;;;25.47;12.50;;;;;;;1.74;100.00;102728.72;5002048;28;20203;-75
2022/01/13 09:17:09;;;;;;;32.70;12.70;;;;;;;1.76;100.00;102728.78;5002885;28;20774;-76
2022/01/13 09:19:36;;;;;;;26.93;13.00;;;;;;;1.75;100.00;102739.91;4993602;28;20602;-75
2022/01/13 09:22:03;;;;;;;26.63;12.97;;;;;;;1.77;100.00;102744.28;4999666;28;20283;-75
2022/01/13 09:24:30;;;;;;;26.97;12.70;;;;;;;1.78;100.00;102750.31;5002563;28;20225;-76
2022/01/13 09:26:57;;;;;;;28.37;13.17;;;;;;;1.80;100.00;102748.69;5004625;28;20204;-76
2022/01/13 09:29:24;;;;;;;33.17;12.57;;;;;;;1.81;100.00;102742.72;5001239;28;20201;-76
2022/01/13 09:31:50;;;;;;;25.37;11.77;;;;;;;1.84;100.00;102746.31;5004714;28;20287;-74
2022/01/13 09:34:16;;;;;;;24.70;12.23;;;;;;;1.83;100.00;102743.66;5001943;28;20713;-74
2022/01/13 09:36:43;;;;;;;29.13;12.73;;;;;;;1.85;100.00;102755.78;5005463;28;20220;-73
2022/01/13 09:39:10;;;;;;;29.50;14.70;;;;;;;1.89;100.00;102749.09;5005217;28;20228;-76
2022/01/13 09:41:43;;;;;;;25.13;12.13;;;;;;;1.93;100.00;102752.69;5006963;28;20209;-75
2022/01/13 09:44:12;;;;;;;26.97;11.90;;;;;;;1.96;100.00;102755.38;5001292;28;20247;-75
2022/01/13 09:46:40;;;;;;;33.23;14.47;;;;;;;1.96;100.00;102753.69;4997029;28;20213;-74
2022/01/13 09:49:08;;;;;;;30.27;11.93;;;;;;;1.99;100.00;102747.81;5006666;28;20207;-76
2022/01/13 09:51:36;;;;;;;24.87;10.93;;;;;;;2.00;100.00;102739.25;5006350;28;20216;-74
2022/01/13 09:54:04;;;;;;;29.03;11.80;;;;;;;2.04;100.00;102741.13;4999975;28;20220;-75
2022/01/13 09:56:33;;;;;;;27.53;11.23;;;;;;;2.04;100.00;102736.91;4985487;28;20575;-75
2022/01/13 09:59:01;;;;;;;24.87;11.33;;;;;;;2.05;100.00;102740.34;4990445;28;20733;-75
2022/01/13 10:01:27;;;;;;;23.17;10.40;;;;;;;2.08;100.00;102743.91;5003777;28;20211;-74
2022/01/13 10:03:53;;;;;;;23.77;11.73;;;;;;;2.10;100.00;102748.25;5007667;28;20854;-75
2022/01/13 10:06:21;;;;;;;21.70;10.63;;;;;;;2.11;100.00;102740.63;5005137;28;20291;-75
2022/01/13 10:08:49;;;;;;;23.20;11.10;;;;;;;2.11;100.00;102740.63;5007777;28;20212;-76
2022/01/13 10:11:37;;;;;;;24.23;11.07;;;;;;;2.18;100.00;102731.44;5006142;28;20211;-75
2022/01/13 10:14:09;;;;;;;20.03;10.53;;;;;;;2.14;100.00;102726.97;5005641;28;20232;-75
2022/01/13 10:16:42;;;;;;;19.80;9.67;;;;;;;2.20;100.00;102737.53;5006248;28;20317;-76
2022/01/13 10:19:25;;;;;;;23.00;10.43;;;;;;;2.19;100.00;102733.22;5002271;28;20216;-75
2022/01/13 10:21:56;;;;;;;23.73;10.67;;;;;;;2.17;100.00;102725.41;5002724;28;20370;-75
2022/01/13 10:24:25;;;;;;;19.83;9.30;;;;;;;2.21;100.00;102729.88;5007654;28;20278;-75
2022/01/13 10:27:00;;;;;;;23.70;10.40;;;;;;;2.22;100.00;102730.78;5005660;28;20208;-75
2022/01/13 10:29:38;;;;;;;22.50;10.50;;;;;;;2.25;100.00;102721.47;5002579;28;20208;-75
2022/01/13 10:32:08;;;;;;;21.80;9.87;;;;;;;2.29;100.00;102717.34;5005582;28;20201;-76
2022/01/13 10:34:38;;;;;;;23.47;9.67;;;;;;;2.30;100.00;102707.91;5004701;28;20205;-75
2022/01/13 10:37:10;;;;;;;21.87;10.53;;;;;;;2.31;100.00;102710.53;4999498;28;20200;-75
2022/01/13 10:39:56;;;;;;;22.87;10.33;;;;;;;2.38;100.00;102704.84;5001857;28;20209;-75
2022/01/13 10:45:36;;;;;;;21.73;9.70;;;;;;;2.40;100.00;102695.47;5004184;28;20324;-75
2022/01/13 10:48:05;;;;;;;23.53;9.97;;;;;;;2.42;100.00;102686.09;5005456;28;20208;-75
2022/01/13 10:50:34;;;;;;;30.20;16.13;;;;;;;2.46;100.00;102681.94;5003787;28;20211;-76
2022/01/13 10:53:03;;;;;;;25.20;13.37;;;;;;;2.47;100.00;102691.44;5006830;28;20224;-75
2022/01/13 10:55:32;;;;;;;28.27;12.60;;;;;;;2.43;100.00;102693.03;5005403;28;20212;-76
2022/01/13 10:57:59;;;;;;;27.97;13.70;;;;;;;2.49;100.00;102692.38;5006956;28;20205;-76
2022/01/13 11:00:28;;;;;;;20.50;10.20;;;;;;;2.51;100.00;102689.88;5002050;28;20217;-76
2022/01/13 11:03:08;;;;;;;21.47;10.97;;;;;;;2.52;100.00;102684.78;5006429;28;20224;-76
2022/01/13 11:05:38;;;;;;;22.53;12.10;;;;;;;2.57;100.00;102677.22;5005783;28;20211;-75
2022/01/13 11:08:06;;;;;;;22.77;10.73;;;;;;;2.57;100.00;102672.97;5002489;28;20203;-76
2022/01/13 11:10:33;;;;;;;21.27;10.73;;;;;;;2.59;100.00;102673.03;5002644;28;20288;-76
2022/01/13 11:13:03;;;;;;;19.20;10.50;;;;;;;2.58;100.00;102669.56;5005939;28;20870;-76
2022/01/13 11:15:29;;;;;;;21.17;10.43;;;;;;;2.58;100.00;102663.53;5005625;28;20213;-75
2022/01/13 11:17:58;;;;;;;24.10;11.20;;;;;;;2.62;100.00;102663.75;5005307;28;20205;-76
2022/01/13 11:20:28;;;;;;;19.93;10.37;;;;;;;2.65;100.00;102668.97;5005918;28;20240;-75
2022/01/13 11:22:56;;;;;;;21.77;10.60;;;;;;;2.62;100.00;102655.09;5002704;28;20238;-76